ADDS TAF Board (Experimental) INFO

IDs: Format: Expanded Condensed

Updated at: 0917 UTC 23 Oct 2014

KMEM - Memphis Intl, TN, US

Issued at 0900 UTC 23 Oct 2014
Time0854Z23/10Z23/11Z23/12Z23/13Z23/14Z23/15Z23/16Z23/17Z23/18Z23/19Z23/20Z23/21Z23/22Z
TypeOBSPRVLPRVLPRVLPRVLPRVLPRVLPRVLPRVLPRVLPRVLPRVLPRVLPRVL
VIS10>6>6>6>6>6>6>6>6>6>6>6>6>6
CIG------250250250250250150150150150150150
CoverFEWSCTSCTBKNBKNBKNBKNBKNBKNBKNBKNBKNBKNBKN
FltCat--VFRVFRVFRVFRVFRVFRVFRVFRVFRVFRVFRVFRVFR
WX----------------------------
WDir6060609090909090101010101010
WSpd86644444666666
WGst----------------------------
R09/27
XWnd43300000666666
HWnd75544444111111
R18/36
XWnd75544444111111
HWnd-4-3-300000-6-6-6-6-6-6
Raw TAF
KMEM 230900Z 2309/2406 06006KT P6SM SCT250
  FM231200 09004KT P6SM FEW150 BKN250
  FM231700 01006KT P6SM BKN150 BKN250
  FM240200 00000KT P6SM SCT150


Raw METAR
KMEM 230854Z 06008KT 10SM FEW250 11/06 A3017 RMK AO2 SLP213 T01060061 58008 $

TAF Board Legend

Hazard VFR MVFR IFR LIFR
Visibility (sm) >5 3≤X≤5 1≤X<3 <1
Ceiling (100 ft) >30 10≤X≤30 5≤X<10 <5
Wind Speed (kt) <10 10≤X<20 20≤X<30 ≥30
Wind Gust (kt) <15 15≤X<25 25≤X<35 ≥35
Weather No Wx Reported VCTS,-TS,-FZRA TS,FZRA +TS,+FZRA


Page loaded:  09:17 UTC  |   02:17 AM Pacific  |   03:17 AM Mountain  |   04:17 AM Central  |   05:17 AM Eastern

 

ADVISORIES

FORECASTS

FORECASTS

OBSERVATIONS

USER TOOLS

ABOUT US